CheckWX is a tool to help pilots better visualize weather data.  It is not intended as a substitute for an official pre-flight weather briefing.

12:00:06 UTC

KLOZ METAR
London-Corbin Arpt-Magee Field Airport
London, Kentucky, USA
Current

1 hour ago

KLOZ 241053Z AUTO 00000KT 9SM CLR 18/17 A3018 RMK AO2 SLP206 T01780172
Observed
May-24 @ 10:53 UTC
Visibility
9 SM
Flight Rules
VFR
Cloud Levels
  • Clear skies
Temperature
18°C / 64°F
Dewpoint
17°C / 63°F
Humidity
94%
Altimeter
30.18" Hg
Pressure
1022.02 hPa
Previous

2 hours ago

KLOZ 240953Z AUTO 00000KT 10SM CLR 18/17 A3016 RMK AO2 SLP199 T01780172
Observed
May-24 @ 09:53 UTC
Visibility
10 SM
Flight Rules
VFR
Cloud Levels
  • Clear skies
Temperature
18°C / 64°F
Dewpoint
17°C / 63°F
Humidity
94%
Altimeter
30.16" Hg
Pressure
1021.32 hPa
Previous

3 hours ago

KLOZ 240853Z AUTO 00000KT 9SM CLR 17/17 A3015 RMK AO2 SLP196 T01720172 55003
Observed
May-24 @ 08:53 UTC
Visibility
9 SM
Flight Rules
VFR
Cloud Levels
  • Clear skies
Temperature
17°C / 63°F
Dewpoint
17°C / 63°F
Humidity
100%
Altimeter
30.15" Hg
Pressure
1021.02 hPa